createdAt,value
2018-02-11T00:00:36.084Z,22.95
2018-02-11T00:03:10.536Z,22.48
2018-02-11T00:05:45.021Z,24.25
2018-02-11T00:08:19.425Z,21.45
2018-02-11T00:10:53.992Z,22.95
2018-02-11T00:13:28.513Z,24.15
2018-02-11T00:16:03.123Z,25.10
2018-02-11T00:18:37.664Z,27.95
2018-02-11T00:21:12.167Z,27.48
2018-02-11T00:23:46.660Z,28.35
2018-02-11T00:26:21.134Z,30.75
2018-02-11T00:28:55.655Z,30.08
2018-02-11T00:31:30.165Z,28.42
2018-02-11T00:34:04.580Z,31.25
2018-02-11T00:36:53.793Z,32.40
2018-02-11T00:39:28.179Z,32.55
2018-02-11T00:42:02.527Z,30.00
2018-02-11T00:44:37.047Z,34.42
2018-02-11T00:47:11.613Z,30.45
2018-02-11T00:49:46.096Z,34.00
2018-02-11T00:52:21.331Z,32.50
2018-02-11T00:54:55.898Z,32.53
2018-02-11T00:57:30.369Z,35.10
2018-02-11T01:00:04.892Z,34.75
2018-02-11T01:02:39.341Z,34.88
2018-02-11T01:05:13.751Z,28.85
2018-02-11T01:07:48.437Z,31.60
2018-02-11T01:10:22.787Z,32.50
2018-02-11T01:12:57.266Z,25.65
2018-02-11T01:15:31.763Z,29.55
2018-02-11T01:18:06.276Z,31.25
2018-02-11T01:20:40.656Z,28.25
2018-02-11T01:23:15.080Z,35.05
2018-02-11T01:25:49.756Z,29.50
2018-02-11T01:28:24.530Z,25.15
2018-02-11T01:30:59.713Z,29.25
2018-02-11T01:33:34.121Z,29.77
2018-02-11T01:36:08.479Z,22.70
2018-02-11T01:38:43.081Z,30.35
2018-02-11T01:41:17.523Z,31.30
2018-02-11T01:43:52.819Z,29.27
2018-02-11T01:46:27.208Z,29.70
2018-02-11T01:49:01.535Z,31.65
2018-02-11T01:51:36.004Z,30.62
2018-02-11T01:54:10.504Z,32.90
2018-02-11T01:56:45.762Z,31.80
2018-02-11T01:59:20.199Z,29.27
2018-02-11T02:01:55.415Z,29.60
2018-02-11T02:04:29.813Z,33.63
2018-02-11T02:07:04.328Z,33.33
2018-02-11T02:09:39.697Z,31.62
2018-02-11T02:12:14.191Z,35.20
2018-02-11T02:14:48.640Z,30.20
2018-02-11T02:17:23.129Z,27.13
2018-02-11T02:19:58.808Z,30.17
2018-02-11T02:22:33.152Z,28.60
2018-02-11T02:25:07.672Z,30.95
2018-02-11T02:27:42.262Z,33.38
2018-02-11T02:30:16.699Z,32.42
2018-02-11T02:32:51.161Z,33.35
2018-02-11T02:35:25.647Z,25.17
2018-02-11T02:38:01.004Z,32.53
2018-02-11T02:40:35.380Z,24.05
2018-02-11T02:43:10.020Z,29.30
2018-02-11T02:45:44.533Z,29.35
2018-02-11T02:48:18.908Z,25.90
2018-02-11T02:50:53.336Z,28.85
2018-02-11T02:53:27.745Z,25.50
2018-02-11T02:56:02.444Z,26.33
2018-02-11T02:58:37.036Z,27.45
2018-02-11T03:01:11.543Z,29.48
2018-02-11T03:03:46.087Z,28.52
2018-02-11T03:06:21.432Z,21.27
2018-02-11T03:08:56.044Z,29.40
2018-02-11T03:11:30.550Z,24.55
2018-02-11T03:14:05.089Z,27.02
2018-02-11T03:16:39.494Z,25.40
2018-02-11T03:19:13.970Z,27.62
2018-02-11T03:21:48.527Z,25.85
2018-02-11T03:24:22.868Z,28.45
2018-02-11T03:26:57.357Z,25.98
2018-02-11T03:29:31.866Z,28.45
2018-02-11T03:32:06.472Z,31.87
2018-02-11T03:34:40.943Z,27.30
2018-02-11T03:37:15.307Z,29.10
2018-02-11T03:39:49.669Z,26.90
2018-02-11T03:42:24.227Z,26.12
2018-02-11T03:44:58.744Z,22.42
2018-02-11T03:47:33.133Z,21.58
2018-02-11T03:50:08.410Z,27.48
2018-02-11T03:52:42.862Z,25.60
2018-02-11T03:55:17.312Z,27.23
2018-02-11T03:57:51.758Z,24.77
2018-02-11T04:00:27.108Z,29.75
2018-02-11T04:03:01.612Z,26.70
2018-02-11T04:05:36.108Z,27.17
2018-02-11T04:08:10.516Z,22.98
2018-02-11T04:10:44.984Z,19.60
2018-02-11T04:13:19.535Z,21.87
2018-02-11T04:15:54.153Z,28.27
2018-02-11T04:18:28.653Z,29.30
2018-02-11T04:21:03.104Z,22.25
2018-02-11T04:23:37.703Z,14.38
2018-02-11T04:26:12.177Z,26.05
2018-02-11T04:28:47.428Z,21.85
2018-02-11T04:31:21.772Z,24.55
2018-02-11T04:33:56.359Z,22.27
2018-02-11T04:36:30.773Z,21.67
2018-02-11T04:39:06.016Z,24.27
2018-02-11T04:41:40.437Z,25.67
2018-02-11T04:44:14.984Z,24.48
2018-02-11T04:46:49.461Z,20.00
2018-02-11T04:49:24.028Z,20.48
2018-02-11T04:51:58.640Z,21.85
2018-02-11T04:54:33.199Z,17.58
2018-02-11T04:57:07.584Z,18.92
2018-02-11T04:59:42.008Z,22.62
2018-02-11T05:02:16.428Z,17.70
2018-02-11T05:04:50.940Z,20.10
2018-02-11T05:07:25.487Z,19.30
2018-02-11T05:09:59.873Z,19.92
2018-02-11T05:12:34.248Z,17.75
2018-02-11T05:15:08.771Z,20.02
2018-02-11T05:17:43.292Z,18.85
2018-02-11T05:20:17.956Z,20.95
2018-02-11T05:22:53.085Z,20.65
2018-02-11T05:25:27.600Z,19.92
2018-02-11T05:28:01.985Z,21.30
2018-02-11T05:30:36.353Z,18.48
2018-02-11T05:33:10.806Z,21.42
2018-02-11T05:35:45.331Z,18.87
2018-02-11T05:38:19.822Z,18.65
2018-02-11T05:40:54.351Z,18.35
2018-02-11T05:43:28.821Z,18.98
2018-02-11T05:46:03.328Z,20.27
2018-02-11T05:48:37.736Z,18.80
2018-02-11T05:51:12.344Z,19.42
2018-02-11T05:53:46.801Z,17.73
2018-02-11T05:56:21.344Z,15.80
2018-02-11T05:58:55.676Z,16.45
2018-02-11T06:01:30.176Z,16.05
2018-02-11T06:04:04.608Z,18.73
2018-02-11T06:06:39.164Z,15.10
2018-02-11T06:09:13.581Z,18.70
2018-02-11T06:11:47.987Z,14.77
2018-02-11T06:14:23.273Z,16.02
2018-02-11T06:16:57.805Z,15.75
2018-02-11T06:19:32.326Z,17.17
2018-02-11T06:22:06.694Z,16.83
2018-02-11T06:24:41.203Z,14.60
2018-02-11T06:27:15.522Z,15.70
2018-02-11T06:29:49.941Z,16.50
2018-02-11T06:32:24.466Z,13.98
2018-02-11T06:34:59.012Z,20.55
2018-02-11T06:37:34.236Z,14.73
2018-02-11T06:40:08.851Z,12.45
2018-02-11T06:42:43.289Z,17.58
2018-02-11T06:45:17.855Z,12.25
2018-02-11T06:47:52.364Z,15.50
2018-02-11T06:50:26.931Z,19.75
2018-02-11T06:53:01.451Z,16.15
2018-02-11T06:55:36.691Z,17.17
2018-02-11T06:58:11.037Z,15.25
2018-02-11T07:00:45.556Z,16.45
2018-02-11T07:03:19.878Z,13.98
2018-02-11T07:05:54.430Z,17.92
2018-02-11T07:08:29.011Z,14.68
2018-02-11T07:11:03.548Z,17.05
2018-02-11T07:13:37.958Z,15.10
2018-02-11T07:16:12.315Z,13.85
2018-02-11T07:18:47.600Z,13.00
2018-02-11T07:21:21.967Z,17.17
2018-02-11T07:23:56.461Z,11.48
2018-02-11T07:26:30.817Z,13.62
2018-02-11T07:29:05.312Z,16.37
2018-02-11T07:31:39.792Z,14.45
2018-02-11T07:34:14.343Z,13.07
2018-02-11T07:36:48.744Z,17.12
2018-02-11T07:39:23.239Z,17.05
2018-02-11T07:41:58.520Z,14.63
2018-02-11T07:44:33.264Z,15.00
2018-02-11T07:47:07.671Z,16.95
2018-02-11T07:49:42.250Z,14.00
2018-02-11T07:52:16.632Z,17.20
2018-02-11T07:54:51.028Z,17.20
2018-02-11T07:57:26.542Z,14.20
2018-02-11T08:00:00.948Z,14.93
2018-02-11T08:02:35.549Z,13.43
2018-02-11T08:05:10.148Z,14.30
2018-02-11T08:07:44.638Z,12.50
2018-02-11T08:10:19.857Z,12.30
2018-02-11T08:12:54.391Z,13.00
2018-02-11T08:15:28.844Z,11.60
2018-02-11T08:18:03.345Z,15.25
2018-02-11T08:20:37.756Z,11.63
2018-02-11T08:23:12.347Z,12.48
2018-02-11T08:25:46.875Z,13.93
2018-02-11T08:28:21.332Z,11.45
2018-02-11T08:30:55.684Z,9.57
2018-02-11T08:33:30.154Z,13.95
2018-02-11T08:36:04.841Z,12.40
2018-02-11T08:38:39.290Z,9.43
2018-02-11T08:41:13.779Z,6.70
2018-02-11T08:43:48.280Z,10.95
2018-02-11T08:46:22.826Z,10.70
2018-02-11T08:48:57.412Z,12.77
2018-02-11T08:51:36.948Z,9.68
2018-02-11T08:54:11.491Z,7.78
2018-02-11T08:56:45.910Z,14.50
2018-02-11T08:59:20.283Z,10.25
2018-02-11T09:01:54.944Z,11.65
2018-02-11T09:04:29.528Z,11.82
2018-02-11T09:07:04.168Z,10.40
2018-02-11T09:09:38.624Z,10.48
2018-02-11T09:12:13.152Z,12.43
2018-02-11T09:14:47.636Z,10.52
2018-02-11T09:17:22.186Z,9.75
2018-02-11T09:19:56.739Z,10.80
2018-02-11T09:22:31.218Z,8.90
2018-02-11T09:25:05.588Z,10.52
2018-02-11T09:27:40.101Z,6.75
2018-02-11T09:30:14.710Z,9.32
2018-02-11T09:32:49.282Z,9.90
2018-02-11T09:35:23.816Z,7.50
2018-02-11T09:37:58.393Z,9.02
2018-02-11T09:40:32.960Z,9.07
2018-02-11T09:43:07.474Z,9.25
2018-02-11T09:45:41.896Z,8.98
2018-02-11T09:48:16.348Z,8.57
2018-02-11T09:50:51.467Z,8.15
2018-02-11T09:53:26.801Z,6.07
2018-02-11T09:56:01.180Z,8.43
2018-02-11T09:58:35.588Z,7.32
2018-02-11T10:01:10.057Z,7.75
2018-02-11T10:03:44.520Z,6.40
2018-02-11T10:06:19.108Z,8.45
2018-02-11T10:08:53.620Z,6.12
2018-02-11T10:11:28.267Z,4.28
2018-02-11T10:14:02.684Z,7.18
2018-02-11T10:16:37.002Z,6.22
2018-02-11T10:19:11.617Z,6.75
2018-02-11T10:21:46.052Z,9.43
2018-02-11T10:24:20.535Z,8.45
2018-02-11T10:26:55.859Z,5.72
2018-02-11T10:29:30.316Z,8.00
2018-02-11T10:32:04.703Z,6.55
2018-02-11T10:34:39.252Z,7.30
2018-02-11T10:37:14.384Z,8.45
2018-02-11T10:39:48.796Z,7.00
2018-02-11T10:42:23.333Z,7.35
2018-02-11T10:44:57.752Z,7.80
2018-02-11T10:47:32.346Z,7.45
2018-02-11T10:50:07.681Z,7.72
2018-02-11T10:52:42.371Z,4.12
2018-02-11T10:55:16.909Z,7.05
2018-02-11T10:57:51.501Z,9.25
2018-02-11T11:00:26.903Z,8.05
2018-02-11T11:03:01.426Z,7.90
2018-02-11T11:05:35.870Z,10.38
2018-02-11T11:08:10.417Z,4.80
2018-02-11T11:10:45.079Z,9.50
2018-02-11T11:13:19.533Z,9.20
2018-02-11T11:15:53.877Z,6.95
2018-02-11T11:18:28.360Z,7.12
2018-02-11T11:21:03.516Z,9.05
2018-02-11T11:23:38.054Z,6.50
2018-02-11T11:26:13.666Z,2.47
2018-02-11T11:28:48.096Z,7.30
2018-02-11T11:31:22.645Z,8.23
2018-02-11T11:33:58.088Z,6.18
2018-02-11T11:36:32.638Z,2.92
2018-02-11T11:39:07.018Z,4.85
2018-02-11T11:41:41.562Z,5.20
2018-02-11T11:44:16.124Z,7.82
2018-02-11T11:46:50.584Z,5.95
2018-02-11T11:49:25.108Z,4.68
2018-02-11T11:51:59.978Z,2.17
2018-02-11T11:54:34.412Z,4.35
2018-02-11T11:57:08.825Z,5.12
2018-02-11T11:59:43.321Z,3.20
2018-02-11T12:02:17.787Z,2.40
2018-02-11T12:04:52.232Z,5.20
2018-02-11T12:07:27.633Z,9.23
2018-02-11T12:10:01.999Z,4.45
2018-02-11T12:12:36.511Z,6.97
2018-02-11T12:15:10.993Z,3.22
2018-02-11T12:17:45.920Z,2.90
2018-02-11T12:20:20.375Z,7.05
2018-02-11T12:22:54.908Z,4.57
2018-02-11T12:25:29.379Z,4.22
2018-02-11T12:28:03.785Z,5.72
2018-02-11T12:30:39.056Z,3.10
2018-02-11T12:33:13.510Z,3.62
2018-02-11T12:35:48.026Z,4.00
2018-02-11T12:38:24.172Z,7.20
2018-02-11T12:40:58.676Z,3.50
2018-02-11T12:43:33.212Z,3.70
2018-02-11T12:46:07.651Z,2.70
2018-02-11T12:48:42.240Z,5.50
2018-02-11T12:51:16.688Z,3.12
2018-02-11T12:53:51.064Z,2.30
2018-02-11T12:56:25.530Z,6.65
2018-02-11T12:59:00.037Z,1.70
2018-02-11T13:01:34.517Z,5.05
2018-02-11T13:04:09.052Z,5.80
2018-02-11T13:06:43.617Z,6.20
2018-02-11T13:09:18.133Z,2.50
2018-02-11T13:11:52.625Z,6.03
2018-02-11T13:14:26.949Z,4.22
2018-02-11T13:17:02.231Z,2.90
2018-02-11T13:19:36.547Z,4.50
2018-02-11T13:22:11.670Z,6.75
2018-02-11T13:24:46.167Z,2.15
2018-02-11T13:27:21.440Z,5.20
2018-02-11T13:29:55.838Z,3.83
2018-02-11T13:32:31.048Z,1.70
2018-02-11T13:35:05.531Z,2.78
2018-02-11T13:37:40.860Z,5.37
2018-02-11T13:40:15.481Z,3.10
2018-02-11T13:42:49.843Z,4.05
2018-02-11T13:45:24.442Z,4.60
2018-02-11T13:47:58.972Z,6.00
2018-02-11T13:50:33.411Z,2.37
2018-02-11T13:53:08.571Z,6.45
2018-02-11T13:55:43.017Z,4.35
2018-02-11T14:00:57.804Z,4.82
2018-02-11T14:03:32.302Z,3.33
2018-02-11T14:06:06.853Z,2.58
2018-02-11T14:08:41.493Z,5.50
2018-02-11T14:11:16.056Z,3.35
2018-02-11T14:13:50.494Z,2.45
2018-02-11T14:16:25.015Z,4.85
2018-02-11T14:19:00.252Z,3.65
2018-02-11T14:21:34.863Z,5.03
2018-02-11T14:24:09.212Z,3.00
2018-02-11T14:26:43.504Z,2.53
2018-02-11T14:29:17.848Z,2.53
2018-02-11T14:31:52.267Z,4.80
2018-02-11T14:34:26.795Z,2.30
2018-02-11T14:37:01.327Z,2.37
2018-02-11T14:39:35.921Z,4.30
2018-02-11T14:42:11.160Z,3.97
2018-02-11T14:44:46.360Z,2.60
2018-02-11T14:47:21.551Z,5.50
2018-02-11T14:49:56.032Z,4.50
2018-02-11T14:52:30.711Z,2.97
2018-02-11T14:55:05.268Z,2.55
2018-02-11T14:57:39.691Z,3.25
2018-02-11T15:00:14.189Z,1.85
2018-02-11T15:02:48.524Z,3.80
2018-02-11T15:05:23.131Z,2.87
2018-02-11T15:07:57.497Z,3.30
2018-02-11T15:10:32.048Z,2.00
2018-02-11T15:13:06.564Z,1.77
2018-02-11T15:15:41.104Z,3.45
2018-02-11T15:18:15.692Z,1.35
2018-02-11T15:20:50.193Z,1.75
2018-02-11T15:23:24.716Z,2.92
2018-02-11T15:26:00.077Z,2.75
2018-02-11T15:28:34.580Z,1.45
2018-02-11T15:31:08.943Z,1.73
2018-02-11T15:33:43.376Z,2.70
2018-02-11T15:36:17.960Z,2.60
2018-02-11T15:38:52.472Z,1.60
2018-02-11T15:41:27.039Z,1.50
2018-02-11T15:44:01.642Z,1.77
2018-02-11T15:46:36.973Z,4.10
2018-02-11T15:49:12.279Z,1.40
2018-02-11T15:51:46.796Z,2.33
2018-02-11T15:54:21.360Z,2.28
2018-02-11T15:56:55.900Z,1.55
2018-02-11T15:59:32.046Z,1.83
2018-02-11T16:02:07.296Z,1.80
2018-02-11T16:04:41.813Z,1.67
2018-02-11T16:07:16.679Z,2.05
2018-02-11T16:09:51.117Z,2.60
2018-02-11T16:12:25.591Z,1.40
2018-02-11T16:14:59.990Z,1.48
2018-02-11T16:17:34.496Z,3.10
2018-02-11T16:20:09.026Z,1.15
2018-02-11T16:22:43.547Z,0.82
2018-02-11T16:25:17.954Z,1.98
2018-02-11T16:27:52.600Z,2.20
2018-02-11T16:30:26.928Z,1.10
2018-02-11T16:33:01.566Z,1.73
2018-02-11T16:35:36.052Z,2.78
2018-02-11T16:38:10.376Z,2.10
2018-02-11T16:40:44.767Z,1.05
2018-02-11T16:43:19.274Z,2.10
2018-02-11T16:45:53.817Z,2.15
2018-02-11T16:48:28.172Z,1.15
2018-02-11T16:51:02.741Z,1.12
2018-02-11T16:53:37.047Z,2.03
2018-02-11T16:56:11.632Z,2.37
2018-02-11T16:58:46.002Z,1.85
2018-02-11T17:01:20.458Z,1.98
2018-02-11T17:03:54.984Z,1.35
2018-02-11T17:06:29.340Z,1.90
2018-02-11T17:09:03.846Z,2.28
2018-02-11T17:11:38.173Z,2.30
2018-02-11T17:14:12.696Z,1.62
2018-02-11T17:16:47.161Z,0.98
2018-02-11T17:19:22.545Z,1.65
2018-02-11T17:21:56.948Z,3.97
2018-02-11T17:24:31.498Z,1.80
2018-02-11T17:27:06.000Z,1.05
2018-02-11T17:29:40.465Z,1.15
2018-02-11T17:32:15.032Z,2.53
2018-02-11T17:34:50.206Z,5.30
2018-02-11T17:37:24.545Z,1.52
2018-02-11T17:39:58.993Z,1.48
2018-02-11T17:42:33.495Z,2.55
2018-02-11T17:45:07.933Z,1.20
2018-02-11T17:47:42.406Z,2.83
2018-02-11T17:50:17.000Z,1.25
2018-02-11T17:52:51.323Z,1.05
2018-02-11T17:55:26.465Z,0.90
2018-02-11T17:58:01.551Z,1.17
2018-02-11T18:00:36.188Z,0.98
2018-02-11T18:03:10.599Z,3.75
2018-02-11T18:05:45.217Z,2.37
2018-02-11T18:08:19.744Z,1.85
2018-02-11T18:10:54.863Z,1.75
2018-02-11T18:13:29.380Z,1.37
2018-02-11T18:16:04.616Z,0.80
2018-02-11T18:18:39.199Z,0.88
2018-02-11T18:21:13.815Z,2.50
2018-02-11T18:23:48.245Z,1.12
2018-02-11T18:26:23.547Z,0.70
2018-02-11T18:28:58.037Z,2.20
2018-02-11T18:31:32.672Z,1.30
2018-02-11T18:34:07.161Z,1.62
2018-02-11T18:36:41.646Z,2.50
2018-02-11T18:39:16.266Z,2.12
2018-02-11T18:41:50.651Z,1.02
2018-02-11T18:44:25.252Z,1.62
2018-02-11T18:46:59.735Z,2.30
2018-02-11T18:49:35.784Z,1.83
2018-02-11T18:52:10.284Z,0.93
2018-02-11T18:54:44.595Z,1.90
2018-02-11T18:57:19.068Z,1.05
2018-02-11T18:59:53.676Z,3.10
2018-02-11T19:02:28.218Z,1.75
2018-02-11T19:05:02.660Z,1.55
2018-02-11T19:07:37.727Z,1.55
2018-02-11T19:10:12.274Z,1.83
2018-02-11T19:12:46.812Z,2.85
2018-02-11T19:15:21.123Z,3.60
2018-02-11T19:17:55.816Z,4.50
2018-02-11T19:20:30.152Z,1.23
2018-02-11T19:23:04.709Z,2.28
2018-02-11T19:25:39.083Z,3.42
2018-02-11T19:28:13.599Z,4.25
2018-02-11T19:30:48.101Z,2.30
2018-02-11T19:33:23.383Z,1.45
2018-02-11T19:35:58.492Z,3.87
2018-02-11T19:38:32.912Z,2.10
2018-02-11T19:41:07.445Z,2.33
2018-02-11T19:43:41.765Z,2.30
2018-02-11T19:46:16.248Z,2.85
2018-02-11T19:48:50.872Z,1.48
2018-02-11T19:51:25.435Z,1.62
2018-02-11T19:53:59.943Z,1.85
2018-02-11T19:56:34.363Z,1.40
2018-02-11T19:59:08.834Z,2.25
2018-02-11T20:01:43.404Z,2.97
2018-02-11T20:04:17.938Z,1.90
2018-02-11T20:06:52.274Z,3.22
2018-02-11T20:09:26.898Z,0.90
2018-02-11T20:12:01.400Z,1.50
2018-02-11T20:14:36.308Z,1.75
2018-02-11T20:17:10.735Z,1.20
2018-02-11T20:19:45.290Z,3.42
2018-02-11T20:22:19.839Z,2.45
2018-02-11T20:24:54.230Z,2.12
2018-02-11T20:27:28.748Z,1.30
2018-02-11T20:30:03.283Z,1.70
2018-02-11T20:32:37.736Z,3.72
2018-02-11T20:35:12.329Z,3.17
2018-02-11T20:37:46.891Z,1.85
2018-02-11T20:40:22.160Z,1.00
2018-02-11T20:42:56.578Z,3.00
2018-02-11T20:45:31.721Z,1.45
2018-02-11T20:48:06.187Z,1.55
2018-02-11T20:50:40.644Z,3.22
2018-02-11T20:53:15.120Z,0.93
2018-02-11T20:55:50.409Z,2.78
2018-02-11T20:58:24.927Z,2.42
2018-02-11T21:00:59.529Z,3.60
2018-02-11T21:03:34.017Z,1.20
2018-02-11T21:06:08.501Z,2.90
2018-02-11T21:08:43.091Z,1.60
2018-02-11T21:11:17.670Z,2.53
2018-02-11T21:13:52.106Z,2.45
2018-02-11T21:16:26.492Z,2.17
2018-02-11T21:19:00.944Z,1.37
2018-02-11T21:21:35.446Z,1.98
2018-02-11T21:24:09.767Z,1.45
2018-02-11T21:26:44.265Z,1.70
2018-02-11T21:29:19.500Z,0.95
2018-02-11T21:31:53.979Z,1.40
2018-02-11T21:34:28.410Z,1.52
2018-02-11T21:37:03.691Z,2.22
2018-02-11T21:39:38.196Z,1.60
2018-02-11T21:42:12.731Z,2.70
2018-02-11T21:44:47.173Z,1.10
2018-02-11T21:47:21.533Z,1.00
2018-02-11T21:49:55.893Z,4.15
2018-02-11T21:52:30.485Z,3.15
2018-02-11T21:55:04.877Z,2.00
2018-02-11T21:57:39.266Z,1.10
2018-02-11T22:00:13.584Z,1.70
2018-02-11T22:02:48.165Z,1.17
2018-02-11T22:05:22.583Z,1.75
2018-02-11T22:07:57.274Z,4.30
2018-02-11T22:10:31.770Z,1.20
2018-02-11T22:13:07.014Z,0.70
2018-02-11T22:15:41.378Z,3.22
2018-02-11T22:18:15.960Z,1.50
2018-02-11T22:20:50.491Z,0.93
2018-02-11T22:23:25.712Z,1.75
2018-02-11T22:26:00.083Z,1.10
2018-02-11T22:28:34.730Z,2.35
2018-02-11T22:31:09.180Z,0.98
2018-02-11T22:33:43.651Z,1.58
2018-02-11T22:36:18.231Z,1.12
2018-02-11T22:38:52.768Z,0.70
2018-02-11T22:41:28.057Z,3.15
2018-02-11T22:44:02.540Z,1.20
2018-02-11T22:46:37.112Z,1.55
2018-02-11T22:49:11.627Z,1.80
2018-02-11T22:51:46.051Z,1.10
2018-02-11T22:54:20.463Z,1.30
2018-02-11T22:56:55.015Z,4.00
2018-02-11T22:59:29.493Z,1.40
2018-02-11T23:02:03.804Z,2.30
2018-02-11T23:04:38.432Z,1.58
2018-02-11T23:07:12.889Z,2.10
2018-02-11T23:09:47.459Z,1.48
2018-02-11T23:12:21.922Z,1.42
2018-02-11T23:14:56.480Z,1.58
2018-02-11T23:17:31.891Z,0.80
2018-02-11T23:20:06.300Z,1.27
2018-02-11T23:22:40.752Z,2.33
2018-02-11T23:25:15.174Z,2.10
2018-02-11T23:27:49.732Z,2.30
2018-02-11T23:30:24.902Z,2.53
2018-02-11T23:32:59.352Z,0.90
2018-02-11T23:35:33.755Z,2.17
2018-02-11T23:38:08.232Z,1.52
2018-02-11T23:40:42.596Z,1.70
2018-02-11T23:43:17.015Z,2.08
2018-02-11T23:45:51.555Z,1.45
2018-02-11T23:48:26.055Z,1.35
2018-02-11T23:51:00.611Z,1.15
2018-02-11T23:53:35.104Z,1.05
2018-02-11T23:56:09.657Z,0.70
2018-02-11T23:58:44.004Z,1.25
